Time;durP1;ratioP1;P1;durP2;ratioP2;P2;SDS_P1;SDS_P2;PMS_P1;PMS_P2;Temp;Humidity;BMP_temperature;BMP_pressure;BME280_temperature;BME280_humidity;BME280_pressure;Samples;Min_cycle;Max_cycle;Signal;HPM_P1;HPM_P2
2022/03/03 00:00:03;;;;;;;24.80;19.30;;;4.30;99.90;;;;;;4992952;28;20034;-72
2022/03/03 00:02:30;;;;;;;30.42;20.23;;;4.20;99.90;;;;;;4993682;28;20472;-73
2022/03/03 00:04:56;;;;;;;25.15;19.48;;;4.10;99.90;;;;;;4971336;28;20029;-73
2022/03/03 00:07:22;;;;;;;28.00;20.10;;;4.00;99.90;;;;;;4988033;28;20030;-72
2022/03/03 00:09:47;;;;;;;21.00;16.38;;;3.90;99.90;;;;;;4991746;28;20030;-72
2022/03/03 00:12:13;;;;;;;31.35;18.45;;;4.00;99.90;;;;;;4987908;28;20086;-72
2022/03/03 00:14:39;;;;;;;26.00;17.83;;;4.10;99.90;;;;;;4981085;28;20049;-72
2022/03/03 00:17:05;;;;;;;23.45;17.13;;;4.00;99.90;;;;;;4985525;28;20098;-72
2022/03/03 00:19:31;;;;;;;24.30;19.95;;;4.00;99.90;;;;;;4992820;28;20022;-72
2022/03/03 00:21:57;;;;;;;23.65;16.33;;;3.90;99.90;;;;;;4990771;28;22449;-73
2022/03/03 00:24:22;;;;;;;21.35;15.25;;;3.90;99.90;;;;;;4967834;28;20053;-73
2022/03/03 00:26:48;;;;;;;22.17;15.27;;;4.00;99.90;;;;;;4987410;28;20456;-74
2022/03/03 00:29:14;;;;;;;18.40;13.77;;;4.00;99.90;;;;;;4987024;28;20937;-72
2022/03/03 00:31:40;;;;;;;16.85;12.32;;;4.00;99.90;;;;;;4990443;28;20042;-72
2022/03/03 00:34:05;;;;;;;17.98;13.30;;;4.00;99.90;;;;;;4985268;28;20030;-71
2022/03/03 00:36:31;;;;;;;20.00;13.77;;;4.00;99.90;;;;;;4972846;28;20027;-73
2022/03/03 00:38:57;;;;;;;15.65;12.73;;;4.00;99.90;;;;;;4987061;28;20404;-72
2022/03/03 00:41:23;;;;;;;15.48;12.40;;;3.90;99.90;;;;;;4965565;28;20428;-72
2022/03/03 00:43:48;;;;;;;16.98;13.30;;;3.80;99.90;;;;;;4966900;28;20018;-71
2022/03/03 00:46:14;;;;;;;18.67;13.00;;;3.90;99.90;;;;;;4970582;28;20050;-75
2022/03/03 00:48:40;;;;;;;15.95;11.63;;;4.10;99.90;;;;;;4987660;28;20096;-71
2022/03/03 00:51:07;;;;;;;16.13;11.95;;;4.00;99.90;;;;;;4986506;28;20018;-71
2022/03/03 00:53:42;;;;;;;14.32;11.95;;;4.00;99.90;;;;;;4984487;28;20409;-73
2022/03/03 00:56:07;;;;;;;18.75;11.25;;;4.00;99.90;;;;;;4983820;28;20030;-73
2022/03/03 00:58:33;;;;;;;15.43;12.40;;;4.00;99.90;;;;;;4988051;28;20053;-73
2022/03/03 01:01:01;;;;;;;18.38;12.63;;;4.00;99.90;;;;;;4984691;28;20023;-73
2022/03/03 01:03:27;;;;;;;18.17;11.35;;;4.00;99.90;;;;;;4988138;28;20504;-72
2022/03/03 01:05:53;;;;;;;21.30;14.23;;;3.80;99.90;;;;;;4968420;28;20038;-73
2022/03/03 01:08:19;;;;;;;19.42;12.75;;;3.80;99.90;;;;;;4969291;28;20038;-72
2022/03/03 01:10:45;;;;;;;20.27;13.88;;;3.60;99.90;;;;;;4985405;28;20369;-72
2022/03/03 01:13:11;;;;;;;23.35;16.90;;;3.70;99.90;;;;;;4989510;28;20038;-72
2022/03/03 01:15:37;;;;;;;17.40;13.85;;;3.70;99.90;;;;;;4991125;28;20030;-72
2022/03/03 01:18:03;;;;;;;17.85;13.45;;;3.60;99.90;;;;;;4990980;28;20073;-73
2022/03/03 01:20:28;;;;;;;19.02;11.82;;;3.60;99.90;;;;;;4988081;28;20029;-72
2022/03/03 01:22:55;;;;;;;14.98;11.35;;;3.70;99.90;;;;;;4967457;28;20026;-74
2022/03/03 01:25:21;;;;;;;14.88;10.45;;;3.60;99.90;;;;;;4988545;28;20092;-73
2022/03/03 01:27:47;;;;;;;14.55;10.77;;;3.60;99.90;;;;;;4984769;28;20117;-72
2022/03/03 01:30:12;;;;;;;15.02;11.27;;;3.60;99.90;;;;;;4988255;28;20022;-73
2022/03/03 01:32:38;;;;;;;13.88;10.90;;;3.60;99.90;;;;;;4988174;28;20537;-72
2022/03/03 01:35:04;;;;;;;14.38;11.23;;;3.60;99.90;;;;;;4985615;28;20065;-72
2022/03/03 01:37:30;;;;;;;24.15;21.23;;;3.50;99.90;;;;;;4993756;28;20026;-71
2022/03/03 01:39:56;;;;;;;18.75;15.73;;;3.50;99.90;;;;;;4985836;28;20023;-73
2022/03/03 01:42:22;;;;;;;18.98;12.65;;;3.50;99.90;;;;;;4991013;28;20110;-72
2022/03/03 01:44:48;;;;;;;17.27;13.63;;;3.60;99.90;;;;;;4986944;28;20022;-73
2022/03/03 01:47:20;;;;;;;12.20;10.40;;;3.60;99.90;;;;;;4972277;28;20030;-75
2022/03/03 01:49:47;;;;;;;17.65;11.57;;;3.60;99.90;;;;;;4985110;28;20022;-72
2022/03/03 01:52:13;;;;;;;18.45;12.52;;;3.60;99.90;;;;;;4987613;28;20041;-72
2022/03/03 01:54:39;;;;;;;15.90;10.15;;;3.60;99.90;;;;;;4985625;28;20026;-72
2022/03/03 01:57:06;;;;;;;10.20;8.45;;;3.50;99.90;;;;;;4972586;28;20023;-72
2022/03/03 01:59:32;;;;;;;14.18;8.98;;;3.40;99.90;;;;;;4970958;28;20085;-72
2022/03/03 02:01:58;;;;;;;12.30;9.18;;;3.40;99.90;;;;;;4967476;28;20027;-73
2022/03/03 02:04:24;;;;;;;11.07;7.53;;;3.40;99.90;;;;;;4988979;28;20102;-73
2022/03/03 02:06:49;;;;;;;10.55;8.73;;;3.40;99.90;;;;;;4967053;28;20058;-72
2022/03/03 02:09:17;;;;;;;10.52;8.45;;;3.40;99.90;;;;;;4985525;28;20042;-73
2022/03/03 02:11:46;;;;;;;11.60;8.00;;;3.40;99.90;;;;;;4989779;28;20018;-73
2022/03/03 02:14:13;;;;;;;11.82;8.88;;;3.40;99.90;;;;;;4986218;28;20114;-73
2022/03/03 02:16:39;;;;;;;10.68;8.57;;;3.30;99.90;;;;;;4989979;28;20416;-73
2022/03/03 02:19:05;;;;;;;14.45;8.77;;;3.20;99.90;;;;;;4991476;28;20499;-73
2022/03/03 02:21:31;;;;;;;10.90;7.60;;;3.20;99.90;;;;;;4991927;28;20034;-72
2022/03/03 02:23:57;;;;;;;13.48;8.75;;;3.20;99.90;;;;;;4974576;28;20034;-73
2022/03/03 02:26:23;;;;;;;12.35;8.23;;;3.20;99.90;;;;;;4990023;28;20034;-72
2022/03/03 02:28:51;;;;;;;10.35;8.63;;;3.20;99.90;;;;;;4989742;28;20027;-73
2022/03/03 02:31:18;;;;;;;12.25;8.32;;;3.20;99.90;;;;;;4971685;28;20030;-72
2022/03/03 02:33:45;;;;;;;11.02;8.55;;;3.20;99.90;;;;;;4972290;28;20038;-71
2022/03/03 02:36:37;;;;;;;11.80;8.05;;;3.20;99.90;;;;;;4972134;28;20038;-72
2022/03/03 02:39:05;;;;;;;11.65;8.00;;;3.20;99.90;;;;;;4987112;28;20037;-72
2022/03/03 02:41:31;;;;;;;14.35;8.27;;;3.20;99.90;;;;;;4978740;28;20062;-72
2022/03/03 02:43:58;;;;;;;12.68;8.40;;;3.10;99.90;;;;;;4971684;28;20106;-72
2022/03/03 02:46:24;;;;;;;10.80;7.90;;;3.10;99.90;;;;;;4971120;28;20201;-73
2022/03/03 02:48:50;;;;;;;12.02;8.48;;;3.00;99.90;;;;;;4987869;28;20118;-74
2022/03/03 02:51:16;;;;;;;9.98;7.47;;;3.00;99.90;;;;;;4978217;28;20030;-71
2022/03/03 02:53:42;;;;;;;10.70;7.80;;;2.90;99.90;;;;;;4978873;28;20107;-71
2022/03/03 02:56:08;;;;;;;13.82;7.55;;;3.00;99.90;;;;;;4971581;28;20031;-71
2022/03/03 02:58:37;;;;;;;16.83;8.38;;;3.00;99.90;;;;;;4962289;28;20477;-72
2022/03/03 03:01:05;;;;;;;15.60;9.00;;;3.00;99.90;;;;;;4974247;28;20026;-71
2022/03/03 03:03:31;;;;;;;10.50;8.55;;;3.00;99.90;;;;;;4986666;28;20030;-70
2022/03/03 03:05:56;;;;;;;10.00;8.40;;;3.00;99.90;;;;;;4976428;28;20105;-72
2022/03/03 03:08:22;;;;;;;14.70;8.38;;;2.90;99.90;;;;;;4990221;28;20495;-71
2022/03/03 03:10:48;;;;;;;14.70;8.75;;;2.90;99.90;;;;;;4955900;28;20034;-72
2022/03/03 03:13:14;;;;;;;18.08;9.07;;;2.90;99.90;;;;;;4983072;28;20057;-71
2022/03/03 03:15:44;;;;;;;12.82;9.25;;;2.90;99.90;;;;;;4971419;28;20031;-72
2022/03/03 03:18:15;;;;;;;15.27;9.02;;;2.90;99.90;;;;;;4952691;28;20035;-72
2022/03/03 03:20:43;;;;;;;10.30;8.40;;;2.90;99.90;;;;;;4954530;28;20498;-72
2022/03/03 03:23:11;;;;;;;11.85;9.07;;;2.90;99.90;;;;;;4983146;28;20410;-72
2022/03/03 03:25:37;;;;;;;13.32;9.07;;;2.90;99.90;;;;;;4980630;28;20035;-72
2022/03/03 03:28:07;;;;;;;12.07;8.73;;;2.90;99.90;;;;;;4982255;28;20030;-73
2022/03/03 03:30:33;;;;;;;11.30;8.95;;;2.90;99.90;;;;;;4991265;28;20400;-72
2022/03/03 03:32:59;;;;;;;13.43;7.68;;;2.90;99.90;;;;;;4986944;28;20034;-71
2022/03/03 03:35:25;;;;;;;12.23;8.65;;;2.90;99.90;;;;;;4992561;28;20412;-71
2022/03/03 03:37:51;;;;;;;11.38;8.38;;;2.90;99.90;;;;;;4975729;28;20022;-71
2022/03/03 03:40:18;;;;;;;15.70;8.48;;;2.90;99.90;;;;;;4977877;28;20031;-71
2022/03/03 03:42:44;;;;;;;12.55;7.88;;;2.90;99.90;;;;;;4958886;28;20018;-72
2022/03/03 03:45:10;;;;;;;13.20;10.18;;;2.90;99.90;;;;;;4987600;28;20165;-72
2022/03/03 03:47:36;;;;;;;13.52;8.55;;;2.80;99.90;;;;;;4964960;28;20041;-72
2022/03/03 03:50:04;;;;;;;12.98;9.05;;;2.80;99.90;;;;;;4962473;28;20031;-72
2022/03/03 03:52:30;;;;;;;11.60;8.70;;;2.90;99.90;;;;;;4973559;28;20489;-72
2022/03/03 03:54:56;;;;;;;14.70;9.82;;;2.90;99.90;;;;;;4985120;28;20034;-72
2022/03/03 03:57:22;;;;;;;12.50;9.32;;;2.80;99.90;;;;;;4988672;28;20502;-71
2022/03/03 03:59:48;;;;;;;13.43;9.70;;;2.80;99.90;;;;;;4983714;28;20040;-72
2022/03/03 04:02:14;;;;;;;14.52;9.88;;;2.80;99.90;;;;;;4978363;28;20061;-72
2022/03/03 04:04:39;;;;;;;11.98;8.82;;;2.80;99.90;;;;;;4988777;28;20092;-72
2022/03/03 04:07:05;;;;;;;16.33;11.27;;;2.80;99.90;;;;;;4955739;28;20027;-72
2022/03/03 04:09:31;;;;;;;20.65;10.25;;;2.80;99.90;;;;;;4981550;28;20038;-73
2022/03/03 04:11:57;;;;;;;11.63;9.23;;;2.90;99.90;;;;;;4975494;28;20125;-72
2022/03/03 04:14:22;;;;;;;13.00;8.98;;;2.90;99.90;;;;;;4980280;28;20073;-72
2022/03/03 04:16:48;;;;;;;13.73;9.88;;;3.00;99.90;;;;;;4977570;28;20054;-72
2022/03/03 04:19:14;;;;;;;16.70;10.27;;;3.00;99.90;;;;;;4992068;28;20027;-72
2022/03/03 04:21:40;;;;;;;16.35;10.55;;;3.00;99.90;;;;;;4991477;28;20030;-72
2022/03/03 04:24:07;;;;;;;15.48;9.75;;;3.00;99.90;;;;;;4984507;28;20580;-72
2022/03/03 04:26:34;;;;;;;16.05;9.73;;;3.00;99.90;;;;;;4972948;28;20054;-72
2022/03/03 04:28:59;;;;;;;20.92;10.15;;;2.90;99.90;;;;;;4977401;28;20113;-72
2022/03/03 04:31:25;;;;;;;17.23;10.00;;;2.90;99.90;;;;;;4992182;28;20085;-72
2022/03/03 04:33:51;;;;;;;16.08;10.57;;;2.80;99.90;;;;;;4990300;28;20026;-71
2022/03/03 04:36:17;;;;;;;15.82;10.02;;;2.80;99.90;;;;;;4991453;28;20485;-72
2022/03/03 04:38:45;;;;;;;15.45;11.65;;;2.70;99.90;;;;;;4978016;28;20129;-71
2022/03/03 04:41:11;;;;;;;14.13;10.73;;;2.70;99.90;;;;;;4972122;28;20094;-72
2022/03/03 04:43:37;;;;;;;13.80;9.80;;;2.70;99.90;;;;;;4989957;28;20136;-72
2022/03/03 04:46:03;;;;;;;14.82;10.80;;;2.80;99.90;;;;;;4972281;28;20067;-71
2022/03/03 04:48:29;;;;;;;13.35;10.30;;;2.90;99.90;;;;;;4972584;28;20037;-71
2022/03/03 04:50:58;;;;;;;13.18;10.07;;;2.90;99.90;;;;;;4976462;28;20041;-72
2022/03/03 04:53:26;;;;;;;14.65;10.15;;;3.00;99.90;;;;;;4978307;28;20030;-72
2022/03/03 04:55:52;;;;;;;17.50;11.93;;;3.10;99.90;;;;;;4984917;28;20069;-72
2022/03/03 04:58:18;;;;;;;16.15;11.10;;;3.00;99.90;;;;;;4971590;28;20050;-73
2022/03/03 05:00:44;;;;;;;21.73;13.95;;;2.90;99.90;;;;;;4988111;28;20057;-70
2022/03/03 05:03:09;;;;;;;23.40;12.80;;;2.70;99.90;;;;;;4991453;28;20458;-72
2022/03/03 05:05:35;;;;;;;14.48;11.68;;;2.60;99.90;;;;;;4990711;28;20417;-71
2022/03/03 05:08:01;;;;;;;20.83;13.32;;;2.50;99.90;;;;;;4973203;28;20034;-73
2022/03/03 05:10:27;;;;;;;26.45;12.85;;;2.40;99.90;;;;;;4979135;28;20101;-72
2022/03/03 05:12:53;;;;;;;17.08;13.15;;;2.30;99.90;;;;;;4974803;28;20026;-72
2022/03/03 05:15:18;;;;;;;19.80;13.18;;;2.30;99.90;;;;;;4975205;28;20339;-72
2022/03/03 05:17:45;;;;;;;15.85;12.25;;;2.20;99.90;;;;;;4983192;28;20030;-71
2022/03/03 05:20:12;;;;;;;18.75;14.60;;;2.10;99.90;;;;;;4975341;28;20126;-71
2022/03/03 05:22:39;;;;;;;25.70;12.75;;;2.10;99.90;;;;;;4972469;28;20030;-71
2022/03/03 05:25:06;;;;;;;21.38;14.38;;;2.10;99.90;;;;;;4960576;28;20497;-72
2022/03/03 05:27:33;;;;;;;20.10;13.02;;;2.10;99.90;;;;;;4989707;28;20030;-72
2022/03/03 05:29:59;;;;;;;22.50;12.05;;;2.40;99.90;;;;;;4977718;28;20137;-72
2022/03/03 05:32:25;;;;;;;18.02;12.77;;;2.50;99.90;;;;;;4970101;28;20085;-72
2022/03/03 05:34:51;;;;;;;18.38;13.52;;;2.70;99.90;;;;;;4989021;28;20041;-70
2022/03/03 05:37:24;;;;;;;23.85;13.40;;;2.60;99.90;;;;;;4991071;28;20366;-72
2022/03/03 05:39:52;;;;;;;22.25;13.20;;;2.70;99.90;;;;;;4987023;28;20373;-72
2022/03/03 05:42:19;;;;;;;23.38;12.55;;;2.70;99.90;;;;;;4982599;28;20026;-73
2022/03/03 05:44:46;;;;;;;20.80;13.35;;;2.70;99.90;;;;;;4955123;28;20030;-72
2022/03/03 05:47:13;;;;;;;21.30;12.40;;;2.70;99.90;;;;;;4972931;28;20082;-72
2022/03/03 05:49:40;;;;;;;19.27;12.07;;;2.70;99.90;;;;;;4972086;28;20042;-71
2022/03/03 05:52:07;;;;;;;18.77;12.68;;;2.80;99.90;;;;;;4988193;28;20030;-73
2022/03/03 05:54:32;;;;;;;19.83;12.85;;;2.80;99.90;;;;;;4990845;28;20396;-71
2022/03/03 05:57:01;;;;;;;29.35;12.18;;;2.90;99.90;;;;;;4990775;28;20034;-70
2022/03/03 05:59:31;;;;;;;18.08;13.68;;;2.90;99.90;;;;;;4973459;28;20063;-70
2022/03/03 06:01:59;;;;;;;20.38;12.60;;;2.80;99.90;;;;;;4980768;28;20387;-71
2022/03/03 06:04:28;;;;;;;21.40;12.98;;;2.90;99.90;;;;;;4954401;28;20023;-63
2022/03/03 06:07:09;;;;;;;21.25;12.15;;;3.00;99.90;;;;;;4954111;28;20029;-65
2022/03/03 06:09:36;;;;;;;27.35;11.77;;;3.10;99.90;;;;;;4971066;28;20018;-64
2022/03/03 06:12:18;;;;;;;21.58;13.20;;;3.20;99.90;;;;;;4971830;28;20023;-64
2022/03/03 06:14:58;;;;;;;28.05;11.82;;;3.20;99.90;;;;;;4972804;28;20035;-64
2022/03/03 06:17:29;;;;;;;19.90;12.40;;;3.30;99.90;;;;;;4956391;28;20122;-64
2022/03/03 06:20:00;;;;;;;21.67;10.65;;;3.50;99.90;;;;;;4956597;28;20030;-63
2022/03/03 06:22:26;;;;;;;18.10;12.75;;;3.60;99.90;;;;;;4978180;28;20027;-64
2022/03/03 06:24:56;;;;;;;26.88;12.30;;;3.70;99.90;;;;;;4973157;28;20032;-65
2022/03/03 06:27:24;;;;;;;20.80;12.45;;;3.80;99.90;;;;;;4972815;28;20030;-64
2022/03/03 06:29:50;;;;;;;26.38;13.38;;;3.80;99.90;;;;;;4989419;28;20437;-65
2022/03/03 06:32:17;;;;;;;26.92;12.05;;;3.90;99.90;;;;;;4995710;28;20030;-64
2022/03/03 06:34:47;;;;;;;19.58;12.57;;;3.90;99.90;;;;;;4985529;28;20037;-65
2022/03/03 06:37:13;;;;;;;28.75;15.52;;;4.00;99.90;;;;;;4999506;28;20026;-64
2022/03/03 06:39:39;;;;;;;23.73;13.52;;;4.10;99.90;;;;;;5001400;28;20028;-64
2022/03/03 06:42:07;;;;;;;18.25;12.75;;;4.20;99.90;;;;;;5002911;28;20015;-65
2022/03/03 06:44:35;;;;;;;19.77;13.18;;;4.30;99.90;;;;;;4980895;28;20503;-64
2022/03/03 06:47:02;;;;;;;23.17;14.77;;;4.50;99.90;;;;;;4977087;28;20034;-64
2022/03/03 06:49:29;;;;;;;20.40;14.02;;;4.60;99.90;;;;;;4990105;28;20380;-64
2022/03/03 06:51:57;;;;;;;25.00;12.70;;;4.60;99.90;;;;;;4990542;28;20080;-63
2022/03/03 06:54:23;;;;;;;19.02;13.48;;;4.70;99.90;;;;;;4990004;28;20015;-64
2022/03/03 06:56:57;;;;;;;23.90;12.85;;;4.70;99.90;;;;;;4991900;28;20431;-65
2022/03/03 06:59:28;;;;;;;22.10;15.10;;;4.80;99.90;;;;;;4993552;28;20029;-64
2022/03/03 07:01:55;;;;;;;18.73;12.10;;;4.80;99.90;;;;;;4976660;28;20026;-65
2022/03/03 07:04:21;;;;;;;22.63;13.45;;;5.00;99.90;;;;;;4967376;28;20532;-66
2022/03/03 07:06:48;;;;;;;22.45;12.70;;;5.00;99.90;;;;;;4980425;28;20049;-64
2022/03/03 07:09:14;;;;;;;19.85;12.48;;;5.10;99.90;;;;;;4993781;28;20480;-65
2022/03/03 07:11:42;;;;;;;20.77;12.68;;;5.20;99.90;;;;;;4992102;28;20038;-64
2022/03/03 07:14:09;;;;;;;15.65;11.73;;;5.30;99.90;;;;;;4994471;28;20018;-66
2022/03/03 07:16:41;;;;;;;18.58;13.75;;;5.50;99.90;;;;;;4991841;28;20034;-64
2022/03/03 07:19:37;;;;;;;19.55;12.70;;;5.50;99.90;;;;;;4974296;28;20038;-66
2022/03/03 07:22:11;;;;;;;18.73;12.15;;;5.60;99.90;;;;;;4969291;28;20535;-66
2022/03/03 07:24:51;;;;;;;18.98;13.00;;;5.70;99.90;;;;;;4974205;28;20023;-66
2022/03/03 07:27:21;;;;;;;17.80;12.57;;;5.80;99.90;;;;;;4975038;28;20381;-67
2022/03/03 07:30:05;;;;;;;15.68;12.07;;;5.80;99.90;;;;;;4974029;28;20030;-66
2022/03/03 07:32:34;;;;;;;16.63;12.55;;;5.90;99.90;;;;;;4973689;28;20481;-66
2022/03/03 07:35:05;;;;;;;20.38;12.75;;;6.00;99.90;;;;;;4975822;28;20564;-66
2022/03/03 07:37:36;;;;;;;21.03;12.23;;;6.20;99.90;;;;;;4973919;28;20078;-66
2022/03/03 07:40:06;;;;;;;19.88;13.13;;;6.30;99.90;;;;;;4973625;28;20258;-65
2022/03/03 07:42:32;;;;;;;22.52;12.60;;;6.50;99.90;;;;;;4973714;28;20385;-66
2022/03/03 07:44:58;;;;;;;24.25;13.75;;;6.50;99.90;;;;;;4958072;28;20038;-66
2022/03/03 07:47:27;;;;;;;18.00;12.05;;;6.60;99.90;;;;;;4993153;28;20030;-66
2022/03/03 07:49:55;;;;;;;18.10;13.60;;;6.70;99.90;;;;;;4993003;28;20023;-65
2022/03/03 07:52:21;;;;;;;26.65;13.35;;;6.80;99.90;;;;;;4993197;28;20153;-68
2022/03/03 07:54:47;;;;;;;17.50;11.75;;;6.90;99.90;;;;;;4993176;28;20018;-65
2022/03/03 07:57:16;;;;;;;18.65;12.80;;;7.00;99.90;;;;;;4992686;28;20076;-66
2022/03/03 07:59:52;;;;;;;21.60;14.18;;;7.10;99.90;;;;;;4990557;28;20386;-66
2022/03/03 08:02:22;;;;;;;21.25;14.85;;;7.30;99.90;;;;;;4955979;28;20547;-66
2022/03/03 08:04:50;;;;;;;20.33;14.50;;;7.50;99.90;;;;;;4973974;28;20059;-66
2022/03/03 08:07:17;;;;;;;29.52;12.65;;;7.60;99.90;;;;;;4984672;28;20041;-67
2022/03/03 08:09:49;;;;;;;22.58;14.70;;;7.60;99.90;;;;;;4990114;28;20519;-67
2022/03/03 08:12:16;;;;;;;21.40;15.53;;;7.60;99.90;;;;;;4993278;28;20343;-66
2022/03/03 08:14:42;;;;;;;21.40;13.13;;;7.70;99.90;;;;;;4988550;28;20640;-66
2022/03/03 08:17:13;;;;;;;16.45;12.85;;;7.80;99.90;;;;;;4989969;28;20026;-66
2022/03/03 08:19:40;;;;;;;24.77;12.90;;;8.00;99.90;;;;;;4990566;28;20101;-66
2022/03/03 08:22:07;;;;;;;19.60;12.77;;;8.10;99.90;;;;;;4990922;28;20117;-66
2022/03/03 08:24:35;;;;;;;19.90;12.57;;;8.10;99.90;;;;;;4990997;28;20488;-66
2022/03/03 08:27:03;;;;;;;23.58;13.43;;;8.10;99.90;;;;;;4992231;28;20030;-67
2022/03/03 08:29:28;;;;;;;20.83;12.13;;;8.20;99.90;;;;;;4974671;28;20392;-65
2022/03/03 08:31:57;;;;;;;17.92;12.13;;;8.10;99.70;;;;;;4992036;28;20022;-66
2022/03/03 08:34:34;;;;;;;20.42;12.98;;;8.20;99.90;;;;;;4974401;28;20080;-66
2022/03/03 08:37:03;;;;;;;21.35;14.15;;;8.30;99.30;;;;;;4974517;28;20018;-67
2022/03/03 08:39:37;;;;;;;44.53;14.48;;;8.40;99.30;;;;;;4957374;28;20093;-66
2022/03/03 08:42:06;;;;;;;41.15;18.00;;;8.60;99.90;;;;;;4972434;28;20077;-66
2022/03/03 08:44:38;;;;;;;33.42;18.50;;;8.60;99.90;;;;;;4972320;28;20030;-66
2022/03/03 08:47:05;;;;;;;28.17;16.23;;;8.70;99.90;;;;;;4954887;28;20039;-66
2022/03/03 08:49:37;;;;;;;27.25;16.58;;;8.60;99.90;;;;;;4971915;28;20033;-65
2022/03/03 08:52:04;;;;;;;20.27;15.75;;;8.50;99.90;;;;;;4964643;28;20655;-67
2022/03/03 08:54:30;;;;;;;29.60;17.92;;;8.50;99.90;;;;;;4974269;28;20031;-65
2022/03/03 08:56:56;;;;;;;27.38;17.80;;;8.60;99.90;;;;;;4991588;28;20033;-64
2022/03/03 08:59:22;;;;;;;23.50;17.00;;;8.50;99.90;;;;;;4990979;28;20026;-66
2022/03/03 09:01:51;;;;;;;25.73;17.95;;;8.50;99.90;;;;;;4982203;28;20200;-67
2022/03/03 09:04:17;;;;;;;23.85;17.73;;;8.50;99.90;;;;;;4991446;28;20018;-66
2022/03/03 09:06:45;;;;;;;24.15;18.35;;;8.60;99.90;;;;;;4973925;28;20022;-65
2022/03/03 09:09:11;;;;;;;36.28;20.13;;;8.60;99.90;;;;;;4987135;28;20412;-65
2022/03/03 09:11:38;;;;;;;31.65;21.63;;;8.70;99.90;;;;;;4980491;28;20066;-65
2022/03/03 09:14:05;;;;;;;25.95;20.77;;;8.80;99.90;;;;;;4986856;28;20023;-65
2022/03/03 09:16:30;;;;;;;36.42;22.27;;;8.70;99.90;;;;;;4973708;28;20049;-65
2022/03/03 09:18:56;;;;;;;28.55;21.70;;;8.70;99.90;;;;;;4991503;28;20404;-64
2022/03/03 09:21:22;;;;;;;41.83;22.85;;;8.90;99.90;;;;;;4988428;28;20034;-65
2022/03/03 09:23:48;;;;;;;32.10;24.38;;;9.00;99.90;;;;;;4990919;28;20417;-64
2022/03/03 09:26:13;;;;;;;32.10;22.20;;;9.00;99.90;;;;;;4990862;28;20124;-65
2022/03/03 09:28:39;;;;;;;30.40;22.05;;;9.10;99.90;;;;;;4991024;28;20037;-64
2022/03/03 09:31:05;;;;;;;32.20;24.52;;;9.00;99.90;;;;;;4990681;28;20041;-66
2022/03/03 09:33:31;;;;;;;39.92;24.27;;;9.00;99.90;;;;;;4990453;28;20041;-65
2022/03/03 09:35:57;;;;;;;32.47;25.13;;;9.00;99.90;;;;;;4989034;28;20109;-65
2022/03/03 09:38:22;;;;;;;28.05;23.77;;;9.10;99.90;;;;;;4990933;28;20050;-64
2022/03/03 09:40:49;;;;;;;34.03;22.15;;;9.10;99.90;;;;;;4990618;28;20343;-65
2022/03/03 09:43:15;;;;;;;37.03;25.08;;;9.10;99.90;;;;;;4992600;28;20489;-65
2022/03/03 09:45:40;;;;;;;35.67;24.05;;;9.20;99.90;;;;;;4991660;28;20038;-65
2022/03/03 09:48:09;;;;;;;32.60;24.00;;;9.20;99.90;;;;;;4989442;28;20469;-65
2022/03/03 09:50:37;;;;;;;40.15;25.48;;;9.30;99.90;;;;;;4971995;28;20031;-65
2022/03/03 09:53:15;;;;;;;32.92;25.27;;;9.40;99.90;;;;;;4972109;28;20022;-65
2022/03/03 09:55:42;;;;;;;34.00;24.65;;;9.30;99.90;;;;;;4971609;28;20033;-66
2022/03/03 09:58:09;;;;;;;30.92;23.90;;;9.40;99.90;;;;;;4984536;28;20031;-65
2022/03/03 10:00:39;;;;;;;31.15;22.00;;;9.30;99.90;;;;;;4978088;28;20037;-65
2022/03/03 10:03:14;;;;;;;32.20;23.00;;;9.20;99.90;;;;;;4987147;28;20030;-66
2022/03/03 10:05:47;;;;;;;28.23;22.50;;;9.10;99.90;;;;;;4990118;28;20065;-66
2022/03/03 10:08:21;;;;;;;28.85;23.25;;;9.10;99.90;;;;;;4971192;28;20463;-66
2022/03/03 10:10:51;;;;;;;31.02;24.75;;;9.10;99.90;;;;;;4981086;28;20057;-65
2022/03/03 10:13:18;;;;;;;35.95;23.13;;;9.00;99.90;;;;;;4972363;28;20065;-66
2022/03/03 10:15:56;;;;;;;40.58;24.70;;;9.00;99.90;;;;;;4989060;28;20029;-66
2022/03/03 10:18:24;;;;;;;35.55;24.58;;;8.90;99.90;;;;;;4970991;28;20023;-66
2022/03/03 10:20:52;;;;;;;33.85;25.88;;;8.70;99.90;;;;;;4953188;28;20066;-65
2022/03/03 10:23:23;;;;;;;32.33;26.10;;;8.80;99.90;;;;;;4973506;28;20029;-65
2022/03/03 10:25:52;;;;;;;40.38;25.10;;;8.80;99.90;;;;;;4973051;28;20058;-65
2022/03/03 10:28:30;;;;;;;31.95;27.23;;;8.80;99.90;;;;;;4990243;28;20535;-66
2022/03/03 10:31:03;;;;;;;34.78;25.65;;;8.90;99.90;;;;;;4970640;28;20058;-66
2022/03/03 10:33:34;;;;;;;38.65;24.65;;;8.80;99.90;;;;;;4993505;28;20037;-66
2022/03/03 10:36:03;;;;;;;35.65;23.52;;;8.80;99.90;;;;;;4994048;28;20022;-66
2022/03/03 10:38:30;;;;;;;39.33;27.13;;;8.60;99.90;;;;;;4994242;28;20085;-66
2022/03/03 10:40:57;;;;;;;40.75;29.17;;;8.50;99.90;;;;;;4976473;28;20117;-65
2022/03/03 10:43:23;;;;;;;35.63;27.15;;;8.60;99.90;;;;;;4976630;28;20031;-65
2022/03/03 10:46:01;;;;;;;38.08;27.20;;;8.70;99.90;;;;;;4976322;28;20096;-66
2022/03/03 10:48:28;;;;;;;37.85;27.52;;;8.80;99.90;;;;;;4994170;28;20109;-66
2022/03/03 10:50:55;;;;;;;37.35;29.40;;;8.90;99.90;;;;;;4994295;28;20392;-66
2022/03/03 10:53:25;;;;;;;30.80;27.27;;;9.00;99.90;;;;;;4994456;28;20038;-66
2022/03/03 10:56:06;;;;;;;30.05;25.50;;;8.90;99.90;;;;;;4994292;28;20037;-66
2022/03/03 10:58:44;;;;;;;38.42;26.45;;;8.70;99.90;;;;;;4994520;28;20026;-65
2022/03/03 11:01:10;;;;;;;44.35;29.60;;;8.90;99.90;;;;;;4994490;28;20186;-66
2022/03/03 11:03:37;;;;;;;40.92;28.00;;;8.90;99.90;;;;;;4976730;28;20023;-66
2022/03/03 11:06:03;;;;;;;36.47;30.92;;;8.90;99.90;;;;;;4976840;28;20030;-67
2022/03/03 11:08:30;;;;;;;35.47;28.95;;;8.90;99.90;;;;;;4993984;28;20108;-67
2022/03/03 11:10:56;;;;;;;40.30;27.88;;;8.90;99.90;;;;;;4976180;28;20026;-66
2022/03/03 11:13:22;;;;;;;34.70;26.65;;;8.90;99.90;;;;;;4993686;28;20026;-67
2022/03/03 11:15:49;;;;;;;38.28;28.15;;;9.10;99.90;;;;;;4977167;28;20064;-67
2022/03/03 11:18:18;;;;;;;32.33;27.73;;;9.10;99.90;;;;;;4994072;28;20025;-66
2022/03/03 11:20:48;;;;;;;34.65;28.50;;;9.10;99.90;;;;;;4993706;28;20101;-68
2022/03/03 11:23:14;;;;;;;36.88;29.70;;;9.20;99.90;;;;;;4976702;28;20504;-65
2022/03/03 11:25:41;;;;;;;37.08;29.23;;;9.20;99.90;;;;;;4994215;28;20118;-67
2022/03/03 11:28:09;;;;;;;35.78;28.73;;;9.00;99.90;;;;;;4993558;28;20036;-66
2022/03/03 11:30:36;;;;;;;46.78;28.50;;;9.00;99.90;;;;;;4993527;28;20030;-66
2022/03/03 11:33:27;;;;;;;35.97;28.02;;;9.10;99.90;;;;;;4976644;28;20041;-67
2022/03/03 11:35:53;;;;;;;37.55;29.40;;;9.00;99.90;;;;;;4993430;28;20030;-66
2022/03/03 11:38:20;;;;;;;36.03;27.55;;;9.00;99.90;;;;;;4993772;28;20037;-66
2022/03/03 11:40:59;;;;;;;32.30;25.77;;;9.10;99.90;;;;;;4993205;28;20393;-66
2022/03/03 11:43:26;;;;;;;38.03;26.73;;;9.10;99.90;;;;;;4992288;28;20334;-66
2022/03/03 11:45:55;;;;;;;33.25;26.25;;;9.00;99.90;;;;;;4992822;28;20030;-67
2022/03/03 11:48:22;;;;;;;36.80;26.92;;;9.10;99.90;;;;;;4976205;28;20105;-66
2022/03/03 11:51:16;;;;;;;32.72;27.50;;;9.00;99.90;;;;;;4992966;28;20035;-66
2022/03/03 11:53:52;;;;;;;39.60;27.42;;;9.00;99.90;;;;;;4992929;28;20046;-66
2022/03/03 11:56:18;;;;;;;34.63;26.70;;;9.00;99.90;;;;;;4993058;28;20027;-66
2022/03/03 11:58:43;;;;;;;35.13;27.33;;;9.00;99.90;;;;;;4975580;28;20049;-68
2022/03/03 12:01:12;;;;;;;30.13;24.45;;;9.00;99.90;;;;;;4993139;28;20485;-66
2022/03/03 12:03:58;;;;;;;35.00;22.17;;;9.10;99.90;;;;;;4976141;28;20023;-66
2022/03/03 12:06:36;;;;;;;30.45;21.58;;;9.10;99.90;;;;;;4976055;28;20126;-66
2022/03/03 12:09:19;;;;;;;32.85;22.02;;;9.10;99.90;;;;;;4994157;28;20100;-67
2022/03/03 12:11:45;;;;;;;36.42;23.02;;;9.10;99.90;;;;;;4960898;28;20030;-68
2022/03/03 12:14:35;;;;;;;25.27;22.50;;;9.10;99.90;;;;;;4976820;28;20110;-66
2022/03/03 12:17:39;;;;;;;27.67;23.70;;;9.00;99.90;;;;;;4976856;28;20034;-67
2022/03/03 12:20:23;;;;;;;28.08;20.30;;;8.90;99.90;;;;;;4993819;28;20056;-67
2022/03/03 12:23:11;;;;;;;32.00;24.17;;;9.10;99.90;;;;;;4976515;28;20034;-65
2022/03/03 12:25:58;;;;;;;34.15;24.75;;;9.10;99.90;;;;;;4994409;28;20026;-66
2022/03/03 12:28:39;;;;;;;35.05;26.30;;;9.10;99.90;;;;;;4993655;28;20354;-66
2022/03/03 12:31:26;;;;;;;34.13;27.17;;;9.30;99.90;;;;;;4992767;28;20103;-65
2022/03/03 12:34:06;;;;;;;35.35;27.48;;;9.50;99.90;;;;;;4975538;28;20036;-66
2022/03/03 12:36:38;;;;;;;40.35;34.10;;;9.50;99.90;;;;;;4979739;28;20053;-65
2022/03/03 12:39:06;;;;;;;35.47;30.08;;;9.50;99.90;;;;;;4976686;28;20088;-65
2022/03/03 12:41:34;;;;;;;38.80;28.05;;;9.50;99.90;;;;;;4992708;28;20022;-66
2022/03/03 12:44:19;;;;;;;37.60;30.80;;;9.60;99.90;;;;;;4975866;28;20027;-66